aviador You're here:

KOVS Decoded Metar

BOSCOBEL in WI, USA
Report Time2017-09-25 19:53:00
UTC Time2017-09-25 20:33:57
Flight Rules vfr VFR
WindVRB at 05 kt
Visibility9999 m
Phenomena:N/A
Clouds:N/A
Expected CloudBase > 6,800 ft AGL from Temp-Dew spread
CeilingNone
Temp33°C (ISA +19)
Dew Point16°C (36% RH)
Heat Index33.0°C
QNH1012 hPa
Density Alt3,140 ft
Elevation663 ft
Report Wrong Elevation
Raw Report
KOVS 251953Z AUTO VRB05KT 10SM CLR 33/16 A2988 RMK AO2 LTG DSNT W
AND NW SLP114 T03330161=

Extra information for KOVS:More info

Metar Taf Metar & Taf Last 4 Metars F.Rules Stats Wind Profile Meteogram Temp Stats Airport Information Weather charts Add Link Nearby VenuesMetar ALERT Operation Metar Decoded Social comments

AIRNAV info for KOVS